To NAV CANADA Home Page Login to a new session Search on AWWS site Feedback and Comments Disclaimer Vers la page française équivalente Tips FAQ What's new on the site To the Forecasts and Observations / NOTAM section To "File a Flight Plan" website Publications and other links Update of the User's profile FIC Telephone Numbers My Weather Data Folder Route Weather Data Regional Weather Data Local Weather Data To the Forecasts and Observations / NOTAM section
Request Generated 05/22/2015 at 20:34:34 UTC . Weather information available at that time is displayed.

METAR/TAF

LONDON/ON    

METAR CYXU 222000Z 33017G28KT 15SM SKC 12/M07 A3022 RMK SLP237=
METAR CYXU 221900Z 34019G26KT 280V350 15SM FEW040 12/M07 A3021 RMK
SC1 SC TR SLP233=
METAR CYXU 221800Z 30017G25KT 280V350 15SM FEW050 12/M05 A3017 RMK
SC1 SLP219=

TAF CYXU 221738Z 2218/2318 30012G22KT P6SM SCT050
BECMG 2222/2224 34010KT
FM230300 VRB03KT P6SM SKC
BECMG 2313/2315 23012KT
RMK NXT FCST BY 230000Z=
Your time UTC time
Weather data provided by Environment Canada and NAV CANADA